Time;durP1;ratioP1;P1;durP2;ratioP2;P2;SDS_P1;SDS_P2;PMS_P1;PMS_P2;Temp;Humidity;BMP_temperature;BMP_pressure;BME280_temperature;BME280_humidity;BME280_pressure;Samples;Min_cycle;Max_cycle;Signal;HPM_P1;HPM_P2
2022/05/24 00:01:23;;;;;;;;;5.25;2.50;;;;;15.79;83.24;100167.53;5077665;27;45762;-70
2022/05/24 00:03:49;;;;;;;;;5.50;3.25;;;;;15.74;83.30;100174.81;5078461;28;45303;-72
2022/05/24 00:06:15;;;;;;;;;4.00;3.75;;;;;15.74;82.93;100174.81;5081430;27;45539;-72
2022/05/24 00:08:43;;;;;;;;;3.00;3.00;;;;;15.74;83.48;100180.91;5081170;27;46382;-72
2022/05/24 00:11:09;;;;;;;;;3.00;3.00;;;;;15.76;83.24;100183.44;5081152;27;45351;-69
2022/05/24 00:13:34;;;;;;;;;5.75;3.00;;;;;15.68;83.12;100194.34;5081453;28;45437;-70
2022/05/24 00:16:00;;;;;;;;;4.00;4.00;;;;;15.61;83.03;100186.91;5081019;27;45216;-70
2022/05/24 00:18:28;;;;;;;;;4.00;2.50;;;;;15.53;83.15;100198.66;5081211;27;46127;-68
2022/05/24 00:20:59;;;;;;;;;3.25;3.25;;;;;15.50;83.21;100211.94;5080732;28;45589;-69
2022/05/24 00:23:27;;;;;;;;;5.75;4.00;;;;;15.46;83.42;100220.03;5081127;27;45306;-67
2022/05/24 00:25:55;;;;;;;;;3.00;3.00;;;;;15.45;83.10;100227.06;5081154;28;45169;-76
2022/05/24 00:28:26;;;;;;;;;4.00;3.00;;;;;15.35;82.36;100214.53;5078627;28;48081;-76
2022/05/24 00:30:52;;;;;;;;;4.75;3.00;;;;;15.31;82.80;100229.59;5081101;27;45576;-73
2022/05/24 00:33:18;;;;;;;;;2.00;2.00;;;;;15.28;81.85;100224.53;5081083;27;45288;-72
2022/05/24 00:35:44;;;;;;;;;2.00;2.00;;;;;15.26;81.78;100231.63;5081334;27;45235;-68
2022/05/24 00:38:14;;;;;;;;;5.25;2.25;;;;;15.23;81.62;100223.09;5080521;28;46340;-69
2022/05/24 00:40:48;;;;;;;;;2.00;2.00;;;;;15.21;80.97;100217.91;5081367;27;45295;-75
2022/05/24 00:43:38;;;;;;;;;2.00;2.00;;;;;15.16;81.12;100217.34;5080581;27;45475;-77
2022/05/24 00:46:08;;;;;;;;;2.25;2.00;;;;;15.13;81.16;100194.78;5080611;27;45442;-78
2022/05/24 00:48:39;;;;;;;;;4.50;3.25;;;;;15.04;80.74;100184.84;5080784;27;46755;-77
2022/05/24 00:51:09;;;;;;;;;2.75;2.00;;;;;15.01;80.68;100189.38;5080308;28;45631;-73
2022/05/24 00:53:40;;;;;;;;;2.00;2.00;;;;;14.97;80.98;100200.94;5080590;27;45339;-74
2022/05/24 00:56:14;;;;;;;;;3.00;3.00;;;;;14.87;80.32;100196.22;5079425;28;45352;-75
2022/05/24 00:58:51;;;;;;;;;1.75;1.75;;;;;14.83;81.26;100204.31;5079090;28;47494;-74
2022/05/24 01:01:34;;;;;;;;;2.00;2.00;;;;;14.81;81.33;100203.53;5080226;28;45406;-76
2022/05/24 01:03:59;;;;;;;;;3.00;3.00;;;;;14.78;81.34;100188.00;5080599;27;45168;-76
2022/05/24 01:06:25;;;;;;;;;1.75;1.75;;;;;14.77;81.28;100189.78;5080591;28;45318;-77
2022/05/24 01:08:54;;;;;;;;;4.00;3.25;;;;;14.72;80.99;100189.19;5080218;27;46319;-75
2022/05/24 01:11:22;;;;;;;;;4.00;2.75;;;;;14.65;81.27;100197.44;5078900;28;46029;-74
2022/05/24 01:13:50;;;;;;;;;5.00;3.25;;;;;14.62;81.82;100198.47;5080235;28;45311;-74
2022/05/24 01:16:16;;;;;;;;;4.00;2.25;;;;;14.60;81.74;100201.13;5080215;28;45596;-71
2022/05/24 01:18:42;;;;;;;;;1.75;1.75;;;;;14.64;81.26;100204.44;5080393;27;45406;-74
2022/05/24 01:21:11;;;;;;;;;2.75;2.75;;;;;14.67;81.55;100206.06;5079804;28;45385;-72
2022/05/24 01:24:07;;;;;;;;;2.25;2.25;;;;;14.71;81.22;100211.03;5080118;27;45432;-72
2022/05/24 01:26:54;;;;;;;;;3.50;1.75;;;;;14.70;80.74;100206.72;5080499;27;45203;-72
2022/05/24 01:29:21;;;;;;;;;2.00;2.00;;;;;14.73;80.53;100213.56;5080109;27;45462;-78
2022/05/24 01:37:18;;;;;;;;;3.00;3.00;;;;;14.80;79.90;100200.06;5079019;28;45411;-77
2022/05/24 01:39:47;;;;;;;;;3.00;1.00;;;;;14.82;79.67;100211.31;5079317;27;46513;-75
2022/05/24 01:42:14;;;;;;;;;2.75;2.75;;;;;14.81;79.17;100214.00;5079954;27;45669;-75
2022/05/24 01:44:59;;;;;;;;;1.00;1.00;;;;;14.74;78.88;100205.63;5079909;28;45392;-76
2022/05/24 01:47:27;;;;;;;;;3.50;3.50;;;;;14.71;78.77;100213.66;5078252;28;45247;-76
2022/05/24 01:50:00;;;;;;;;;3.75;2.25;;;;;14.71;79.33;100223.28;5077423;28;47120;-78
2022/05/24 01:52:35;;;;;;;;;2.75;2.00;;;;;14.70;79.38;100218.97;5080108;28;45414;-78
2022/05/24 01:55:11;;;;;;;;;5.25;1.75;;;;;14.70;78.86;100222.44;5080403;27;45621;-78
2022/05/24 01:57:43;;;;;;;;;2.00;2.00;;;;;14.68;79.28;100219.06;5079821;27;45334;-78
2022/05/24 02:00:12;;;;;;;;;3.00;2.00;;;;;14.67;78.84;100233.06;5079688;28;45403;-79
2022/05/24 02:02:38;;;;;;;;;3.75;2.50;;;;;14.57;78.51;100229.22;5079451;28;45342;-79
2022/05/24 02:05:05;;;;;;;;;2.00;0.75;;;;;14.54;78.86;100237.22;5080009;27;45317;-80
2022/05/24 02:07:32;;;;;;;;;2.00;1.25;;;;;14.51;78.96;100237.38;5079337;27;45507;-79
2022/05/24 02:09:57;;;;;;;;;2.25;2.25;;;;;14.55;79.01;100238.91;5079777;27;46169;-79
2022/05/24 02:12:32;;;;;;;;;3.00;1.00;;;;;14.53;78.64;100235.53;5079492;27;45278;-76
2022/05/24 02:15:09;;;;;;;;;2.00;2.00;;;;;14.51;82.49;100234.78;5079869;28;45211;-79
2022/05/24 02:17:41;;;;;;;;;2.25;1.00;;;;;14.47;79.11;100236.69;5079481;27;45465;-79
2022/05/24 02:20:09;;;;;;;;;2.00;1.00;;;;;14.39;80.47;100230.97;5079519;27;46305;-79
2022/05/24 02:22:36;;;;;;;;;1.00;1.00;;;;;14.37;80.63;100230.22;5077767;28;45243;-79
2022/05/24 02:25:09;;;;;;;;;2.00;1.00;;;;;14.34;80.05;100232.13;5079569;27;45321;-79
2022/05/24 02:27:43;;;;;;;;;1.00;1.00;;;;;14.26;80.10;100235.16;5078997;28;45591;-76
2022/05/24 02:30:09;;;;;;;;;3.75;1.25;;;;;14.26;80.51;100237.78;5078938;27;45403;-76
2022/05/24 02:32:35;;;;;;;;;1.00;1.00;;;;;14.23;80.58;100232.69;5079192;28;45565;-76
2022/05/24 02:35:00;;;;;;;;;3.00;2.00;;;;;14.24;80.82;100237.00;5079145;27;45508;-75
2022/05/24 02:37:26;;;;;;;;;3.00;2.00;;;;;14.22;80.57;100236.25;5078496;27;45574;-74
2022/05/24 02:42:35;;;;;;;;;1.00;1.00;;;;;14.18;80.72;100238.13;5079289;28;45284;-77
2022/05/24 02:45:00;;;;;;;;;1.00;1.00;;;;;14.18;80.96;100250.34;5079000;27;45453;-77
2022/05/24 02:47:26;;;;;;;;;0.75;0.75;;;;;14.11;80.57;100238.53;5078954;27;45310;-76
2022/05/24 02:49:51;;;;;;;;;1.00;1.00;;;;;14.05;81.69;100241.47;5077175;28;47916;-77
2022/05/24 02:52:16;;;;;;;;;1.00;1.00;;;;;14.03;80.68;100253.75;5081280;27;45370;-77
2022/05/24 02:54:42;;;;;;;;;2.25;2.00;;;;;13.99;81.27;100248.66;5082449;27;45323;-77
2022/05/24 02:57:07;;;;;;;;;2.00;1.00;;;;;13.97;81.07;100254.88;5082750;27;45306;-77
2022/05/24 02:59:33;;;;;;;;;1.00;1.00;;;;;13.93;81.18;100255.97;5082271;27;46313;-78
2022/05/24 03:01:59;;;;;;;;;1.75;1.00;;;;;13.93;81.33;100251.59;5082526;28;45365;-73
2022/05/24 03:04:24;;;;;;;;;1.00;1.00;;;;;13.96;81.57;100266.25;5080826;28;45300;-73
2022/05/24 03:09:33;;;;;;;;;1.50;1.00;;;;;13.93;80.92;100256.81;5092789;27;45669;-73
2022/05/24 03:14:44;;;;;;;;;1.75;1.00;;;;;13.92;81.39;100275.16;5080547;27;45451;-75
2022/05/24 03:17:10;;;;;;;;;3.00;2.00;;;;;13.92;81.87;100280.38;5081226;27;46229;-75
2022/05/24 03:19:35;;;;;;;;;3.00;2.00;;;;;13.97;81.76;100283.63;5081691;28;45338;-76
2022/05/24 03:22:00;;;;;;;;;4.00;2.00;;;;;13.99;82.23;100280.00;5081760;27;45265;-73
2022/05/24 03:24:26;;;;;;;;;2.50;2.50;;;;;13.95;81.67;100275.84;5082112;28;45247;-73
2022/05/24 03:26:51;;;;;;;;;3.25;1.00;;;;;13.88;81.85;100274.47;5081760;27;45433;-73
2022/05/24 03:29:17;;;;;;;;;2.00;1.50;;;;;13.88;81.75;100284.06;5081927;27;46273;-75
2022/05/24 03:31:42;;;;;;;;;2.50;1.25;;;;;13.87;81.87;100293.69;5079959;27;45335;-72
2022/05/24 03:34:07;;;;;;;;;2.25;2.00;;;;;13.84;81.74;100295.59;5079433;28;45332;-72
2022/05/24 03:36:33;;;;;;;;;4.75;1.00;;;;;13.81;82.25;100288.72;5079115;28;45604;-73
2022/05/24 03:38:59;;;;;;;;;2.00;2.00;;;;;13.74;82.44;100289.94;5079189;27;46205;-74
2022/05/24 03:41:24;;;;;;;;;4.50;3.00;;;;;13.72;82.72;100299.63;5079438;27;45355;-73
2022/05/24 03:43:50;;;;;;;;;5.75;2.00;;;;;13.68;82.12;100287.63;5079306;28;45650;-73
2022/05/24 03:46:16;;;;;;;;;0.00;0.00;;;;;13.63;82.69;100285.25;5078763;28;45544;-75
2022/05/24 03:48:41;;;;;;;;;1.50;0.75;;;;;13.61;82.13;100292.28;5081569;27;45380;-76
2022/05/24 03:51:06;;;;;;;;;2.75;1.75;;;;;13.59;82.36;100301.97;5080894;28;45419;-75
2022/05/24 03:53:33;;;;;;;;;1.00;1.00;;;;;13.54;82.50;100309.16;5081691;27;45390;-76
2022/05/24 03:55:58;;;;;;;;;1.75;1.75;;;;;13.51;82.46;100317.16;5081517;27;45492;-73
2022/05/24 03:58:25;;;;;;;;;0.00;0.00;;;;;13.52;82.40;100321.44;5080056;28;46952;-74
2022/05/24 04:00:50;;;;;;;;;4.00;1.00;;;;;13.50;82.48;100322.44;5079823;28;45843;-73
2022/05/24 04:03:16;;;;;;;;;1.00;1.00;;;;;13.52;82.54;100324.06;5081638;28;45310;-72
2022/05/24 04:05:43;;;;;;;;;2.50;2.00;;;;;13.53;81.95;100324.91;5081294;28;45302;-73
2022/05/24 04:08:08;;;;;;;;;2.00;2.00;;;;;13.54;82.42;100324.84;5080956;28;45353;-74
2022/05/24 04:10:35;;;;;;;;;2.00;2.00;;;;;13.56;82.32;100324.75;5079972;28;45247;-72
2022/05/24 04:13:01;;;;;;;;;3.25;1.00;;;;;13.56;82.07;100329.97;5081301;28;45519;-72
2022/05/24 04:15:27;;;;;;;;;1.50;1.50;;;;;13.57;82.83;100336.91;5080474;27;45405;-72
2022/05/24 04:17:54;;;;;;;;;2.75;1.75;;;;;13.57;82.40;100339.50;5081129;28;45428;-72
2022/05/24 04:20:21;;;;;;;;;3.00;2.00;;;;;13.57;81.87;100337.75;5080761;27;45654;-72
2022/05/24 04:22:47;;;;;;;;;2.25;1.00;;;;;13.54;81.35;100337.88;5079841;28;45237;-73
2022/05/24 04:25:14;;;;;;;;;2.00;2.00;;;;;13.51;81.63;100331.97;5078249;28;45515;-73
2022/05/24 04:27:40;;;;;;;;;1.00;1.00;;;;;13.48;81.67;100335.56;5079607;28;47129;-72
2022/05/24 04:30:07;;;;;;;;;1.00;1.00;;;;;13.50;81.68;100336.34;5080621;28;45405;-73
2022/05/24 04:32:33;;;;;;;;;0.25;0.25;;;;;13.52;81.66;100334.50;5079766;28;45442;-76
2022/05/24 04:34:58;;;;;;;;;2.00;1.00;;;;;13.64;81.60;100339.16;5080406;27;45444;-73
2022/05/24 04:37:24;;;;;;;;;1.00;1.00;;;;;13.75;81.43;100345.63;5079363;28;48222;-74
2022/05/24 04:39:50;;;;;;;;;2.50;1.00;;;;;13.84;80.61;100350.44;5080717;27;45396;-75
2022/05/24 04:42:24;;;;;;;;;1.50;0.50;;;;;13.81;80.77;100358.41;5080904;28;45459;-75
2022/05/24 04:44:57;;;;;;;;;1.00;1.00;;;;;13.85;80.41;100373.03;5080591;27;45452;-77
2022/05/24 04:47:26;;;;;;;;;2.25;2.00;;;;;13.90;80.11;100371.06;5080118;27;46301;-75
2022/05/24 04:49:54;;;;;;;;;1.00;1.00;;;;;13.85;80.13;100367.81;5079689;28;45315;-75
2022/05/24 04:52:23;;;;;;;;;1.25;1.25;;;;;13.86;79.85;100377.34;5080499;28;45247;-74
2022/05/24 04:54:49;;;;;;;;;3.00;1.00;;;;;13.83;79.88;100370.50;5080121;27;45314;-72
2022/05/24 04:57:14;;;;;;;;;3.25;1.00;;;;;13.75;80.11;100376.97;5080329;28;45385;-71
2022/05/24 04:59:40;;;;;;;;;0.50;0.50;;;;;13.78;80.12;100376.84;5080081;27;45293;-71
2022/05/24 05:02:09;;;;;;;;;1.00;1.00;;;;;13.82;79.95;100389.69;5080564;28;45277;-71
2022/05/24 05:04:35;;;;;;;;;1.00;1.00;;;;;13.76;78.63;100389.97;5080278;27;45536;-71
2022/05/24 05:07:01;;;;;;;;;2.00;2.00;;;;;13.74;79.36;100383.13;5080172;27;46517;-70
2022/05/24 05:09:34;;;;;;;;;1.00;1.00;;;;;13.77;79.38;100394.28;5079837;28;45317;-71
2022/05/24 05:12:00;;;;;;;;;1.00;1.00;;;;;13.77;78.89;100406.47;5080302;27;45585;-70
2022/05/24 05:14:25;;;;;;;;;0.25;0.25;;;;;13.74;78.77;100401.41;5079258;27;45442;-71
2022/05/24 05:16:50;;;;;;;;;1.75;1.00;;;;;13.75;78.99;100408.31;5079722;27;45422;-72
2022/05/24 05:19:16;;;;;;;;;2.50;1.25;;;;;13.80;79.20;100403.72;5077995;28;45405;-72
2022/05/24 05:21:41;;;;;;;;;2.00;1.00;;;;;13.82;78.43;100404.53;5078779;28;45418;-73
2022/05/24 05:24:07;;;;;;;;;0.75;0.75;;;;;13.84;78.34;100406.16;5079646;27;45314;-71
2022/05/24 05:26:33;;;;;;;;;3.00;2.00;;;;;13.87;77.95;100419.06;5079888;27;45494;-73
2022/05/24 05:29:00;;;;;;;;;1.00;1.00;;;;;13.90;78.01;100420.69;5079677;28;45314;-72
2022/05/24 05:31:28;;;;;;;;;2.00;2.00;;;;;13.95;78.23;100423.91;5079402;27;45320;-72
2022/05/24 05:33:56;;;;;;;;;2.00;1.00;;;;;14.05;77.84;100430.44;5079494;27;45355;-70
2022/05/24 05:36:22;;;;;;;;;1.00;1.00;;;;;14.05;77.40;100421.75;5078073;28;47262;-69
2022/05/24 05:38:48;;;;;;;;;2.00;1.00;;;;;14.07;77.37;100431.19;5079330;28;45381;-69
2022/05/24 05:41:21;;;;;;;;;2.00;1.75;;;;;14.08;76.44;100427.66;5079489;28;45304;-73
2022/05/24 05:43:47;;;;;;;;;2.00;1.00;;;;;14.02;76.70;100441.03;5074249;28;45531;-71
2022/05/24 05:46:14;;;;;;;;;1.00;0.50;;;;;13.99;76.64;100434.16;5075045;28;46524;-71
2022/05/24 05:48:40;;;;;;;;;1.00;1.00;;;;;14.06;77.33;100447.81;5072456;27;45851;-71
2022/05/24 05:51:07;;;;;;;;;6.50;5.00;;;;;14.20;77.08;100447.97;5078549;28;45441;-75
2022/05/24 05:53:33;;;;;;;;;2.25;1.25;;;;;14.29;76.23;100451.94;5079232;27;45220;-75
2022/05/24 05:55:58;;;;;;;;;3.00;3.00;;;;;14.32;76.53;100452.63;5078540;27;45239;-75
2022/05/24 05:58:24;;;;;;;;;3.75;1.75;;;;;14.34;76.00;100462.19;5077729;28;45257;-74
2022/05/24 06:00:50;;;;;;;;;2.00;2.00;;;;;14.39;76.22;100466.25;5079234;27;45262;-74
2022/05/24 06:03:16;;;;;;;;;3.00;2.00;;;;;14.48;76.22;100468.47;5079284;27;45268;-75
2022/05/24 06:05:50;;;;;;;;;3.00;2.00;;;;;14.49;75.22;100469.31;5078823;27;45456;-77
2022/05/24 06:08:16;;;;;;;;;2.00;2.00;;;;;14.54;75.06;100467.34;5078677;27;45423;-75
2022/05/24 06:10:41;;;;;;;;;2.50;1.75;;;;;14.61;74.85;100473.94;5078966;27;45527;-74
2022/05/24 06:13:07;;;;;;;;;1.00;1.00;;;;;14.68;75.14;100472.75;5078926;28;45464;-74
2022/05/24 06:15:34;;;;;;;;;0.50;0.00;;;;;14.81;73.69;100476.44;5076510;27;47021;-76
2022/05/24 06:18:00;;;;;;;;;1.00;1.00;;;;;14.80;73.77;100479.13;5079065;27;45388;-72
2022/05/24 06:20:29;;;;;;;;;1.00;1.00;;;;;14.81;74.00;100486.91;5078839;27;45338;-72
2022/05/24 06:22:57;;;;;;;;;3.00;2.50;;;;;14.86;73.96;100490.16;5078788;27;45189;-72
2022/05/24 06:25:27;;;;;;;;;7.50;4.25;;;;;14.95;73.99;100486.22;5078326;28;45448;-73
2022/05/24 06:27:58;;;;;;;;;1.75;1.75;;;;;15.10;72.53;100488.09;5081573;27;45607;-74
2022/05/24 06:30:24;;;;;;;;;3.25;3.00;;;;;15.17;71.64;100499.09;5080127;28;45374;-75
2022/05/24 06:32:51;;;;;;;;;2.25;1.75;;;;;15.12;72.42;100490.63;5075779;27;45528;-75
2022/05/24 06:35:17;;;;;;;;;3.50;2.00;;;;;15.22;72.95;100499.75;5075801;28;46332;-76
2022/05/24 06:37:43;;;;;;;;;3.75;3.75;;;;;15.34;71.74;100500.88;5070638;28;45429;-76
2022/05/24 06:40:11;;;;;;;;;3.50;2.25;;;;;15.42;71.62;100506.56;5073519;28;45436;-78
2022/05/24 06:42:36;;;;;;;;;2.00;1.25;;;;;15.47;70.75;100504.56;5074573;28;45332;-75
2022/05/24 06:45:03;;;;;;;;;4.00;2.00;;;;;15.57;71.59;100510.16;5078192;28;46287;-78
2022/05/24 06:47:28;;;;;;;;;2.75;2.75;;;;;15.62;69.74;100511.66;5081889;27;45797;-77
2022/05/24 06:49:55;;;;;;;;;1.75;1.50;;;;;15.59;70.01;100505.72;5081113;28;45294;-77
2022/05/24 06:52:21;;;;;;;;;2.00;1.00;;;;;15.59;70.22;100516.19;5082039;27;45226;-77
2022/05/24 06:54:46;;;;;;;;;2.00;2.00;;;;;15.58;69.85;100520.56;5081640;27;46297;-76
2022/05/24 06:57:12;;;;;;;;;7.00;6.00;;;;;15.69;69.78;100518.28;5081953;27;45309;-75
2022/05/24 07:02:27;;;;;;;;;1.00;1.00;;;;;15.82;68.21;100534.22;5081856;28;45421;-74
2022/05/24 07:04:57;;;;;;;;;5.75;4.00;;;;;15.86;67.08;100543.59;5080628;28;46394;-77
2022/05/24 07:07:24;;;;;;;;;1.75;1.75;;;;;15.79;67.75;100534.34;5081009;27;45940;-78
2022/05/24 07:09:50;;;;;;;;;1.00;1.00;;;;;15.76;67.75;100534.50;5078165;28;45421;-78
2022/05/24 07:12:23;;;;;;;;;3.50;2.25;;;;;15.79;68.08;100539.59;5080435;27;45228;-75
2022/05/24 07:14:49;;;;;;;;;2.00;1.00;;;;;15.93;67.82;100550.19;5077813;28;45486;-77
2022/05/24 07:17:17;;;;;;;;;3.50;1.75;;;;;15.96;67.32;100551.81;5080090;28;45409;-78
2022/05/24 07:19:43;;;;;;;;;6.75;4.00;;;;;15.96;67.45;100549.19;5079033;28;45536;-76
2022/05/24 07:22:08;;;;;;;;;6.75;2.75;;;;;15.89;67.53;100550.44;5079985;28;45446;-78
2022/05/24 07:24:35;;;;;;;;;2.25;0.50;;;;;15.98;67.06;100550.78;5080268;28;45602;-74
2022/05/24 07:27:01;;;;;;;;;4.00;4.00;;;;;16.02;66.37;100541.88;5080253;27;45252;-71
2022/05/24 07:29:26;;;;;;;;;2.75;2.00;;;;;16.14;66.75;100545.59;5079153;27;45331;-76
2022/05/24 07:31:52;;;;;;;;;8.00;4.75;;;;;16.12;65.78;100540.44;5079798;28;45313;-73
2022/05/24 07:34:17;;;;;;;;;4.00;2.50;;;;;16.21;65.85;100539.06;5080271;28;45304;-75
2022/05/24 07:36:43;;;;;;;;;6.00;3.00;;;;;16.32;66.23;100541.97;5079732;28;45361;-75
2022/05/24 07:39:08;;;;;;;;;6.75;4.00;;;;;16.51;65.66;100549.69;5078809;28;45716;-75
2022/05/24 07:47:09;;;;;;;;;5.75;5.25;;;;;17.05;65.03;100550.19;5078481;28;45311;-72
2022/05/24 07:49:35;;;;;;;;;6.50;4.75;;;;;17.18;62.49;100551.16;5079154;28;45423;-76
2022/05/24 07:52:01;;;;;;;;;6.50;5.75;;;;;17.31;63.25;100552.16;5079759;28;45275;-77
2022/05/24 07:54:26;;;;;;;;;2.75;2.75;;;;;17.33;60.43;100550.28;5081060;27;46391;-68
2022/05/24 07:56:51;;;;;;;;;2.50;2.00;;;;;17.34;62.21;100543.25;5079657;28;45716;-72
2022/05/24 07:59:17;;;;;;;;;1.75;1.75;;;;;17.50;62.73;100546.66;5079863;27;45245;-76
2022/05/24 08:01:43;;;;;;;;;4.75;3.00;;;;;17.70;59.99;100555.19;5081053;28;45222;-75
2022/05/24 08:04:09;;;;;;;;;2.75;0.00;;;;;17.58;59.21;100549.66;5079902;28;48251;-69
2022/05/24 08:06:35;;;;;;;;;0.25;0.25;;;;;17.69;60.18;100556.97;5080671;28;45239;-68
2022/05/24 08:09:00;;;;;;;;;3.00;2.00;;;;;17.82;60.10;100560.56;5079783;27;45468;-71
2022/05/24 08:11:26;;;;;;;;;5.25;4.50;;;;;17.94;57.41;100561.56;5076827;27;45506;-69
2022/05/24 08:13:51;;;;;;;;;2.00;1.25;;;;;17.93;58.20;100557.25;5079031;28;45452;-72
2022/05/24 08:16:16;;;;;;;;;3.00;3.00;;;;;17.92;57.25;100560.81;5092583;27;45350;-70
2022/05/24 08:18:44;;;;;;;;;3.00;2.00;;;;;17.88;55.17;100562.81;5079908;28;45458;-71
2022/05/24 08:21:09;;;;;;;;;2.50;1.00;;;;;17.90;57.68;100558.28;5080571;28;45540;-70
2022/05/24 08:23:35;;;;;;;;;1.00;1.00;;;;;18.02;58.03;100566.34;5079057;28;48023;-71
2022/05/24 08:26:01;;;;;;;;;7.50;2.75;;;;;18.15;56.32;100568.16;5080578;28;45635;-70
2022/05/24 08:28:26;;;;;;;;;2.75;2.75;;;;;18.14;57.22;100558.56;5079471;28;45212;-68
2022/05/24 08:30:53;;;;;;;;;3.00;2.50;;;;;18.33;57.45;100566.16;5080317;28;45590;-68
2022/05/24 08:33:21;;;;;;;;;3.50;3.50;;;;;18.43;56.49;100563.81;5080663;28;46434;-72
2022/05/24 08:35:46;;;;;;;;;5.00;1.75;;;;;18.47;55.77;100560.88;5078818;28;45363;-68
2022/05/24 08:38:14;;;;;;;;;2.00;1.50;;;;;18.43;55.84;100563.81;5080713;28;45346;-68
2022/05/24 08:40:42;;;;;;;;;2.25;2.00;;;;;18.36;55.54;100567.75;5080754;28;45441;-69
2022/05/24 08:43:14;;;;;;;;;2.75;1.50;;;;;18.37;55.59;100562.41;5078112;28;48478;-68
2022/05/24 08:48:39;;;;;;;;;2.50;2.00;;;;;18.41;52.85;100560.41;5079025;28;45275;-66
2022/05/24 08:51:12;;;;;;;;;4.00;2.00;;;;;18.51;55.37;100557.13;5079557;28;45664;-71
2022/05/24 08:53:46;;;;;;;;;4.50;3.00;;;;;18.75;54.28;100565.25;5080254;28;45432;-67
2022/05/24 08:56:19;;;;;;;;;3.75;1.00;;;;;18.71;51.66;100555.03;5078321;27;45237;-71
2022/05/24 08:58:53;;;;;;;;;1.00;1.00;;;;;18.79;54.24;100558.84;5078799;27;45538;-75
2022/05/24 09:01:23;;;;;;;;;2.00;2.00;;;;;18.88;52.48;100562.69;5080268;28;45302;-78
2022/05/24 09:03:49;;;;;;;;;1.00;1.00;;;;;18.91;52.86;100561.66;5080602;28;46218;-68
2022/05/24 09:06:24;;;;;;;;;3.25;1.00;;;;;18.89;52.10;100561.75;5080278;27;45242;-74
2022/05/24 09:09:17;;;;;;;;;1.00;1.00;;;;;18.97;51.39;100569.16;5080057;27;45514;-65
2022/05/24 09:12:13;;;;;;;;;1.00;1.00;;;;;19.17;52.00;100562.56;5072315;28;45240;-72
2022/05/24 09:15:02;;;;;;;;;2.00;1.25;;;;;19.39;52.44;100568.09;5079646;28;46390;-74
2022/05/24 09:17:36;;;;;;;;;0.00;0.00;;;;;19.56;51.78;100567.84;5079996;27;45652;-69
2022/05/24 09:20:13;;;;;;;;;5.50;3.75;;;;;19.61;48.08;100557.81;5079817;28;45295;-74
2022/05/24 09:22:38;;;;;;;;;3.25;1.00;;;;;19.52;49.25;100566.34;5078568;28;45321;-67
2022/05/24 09:25:05;;;;;;;;;4.00;1.00;;;;;19.59;50.18;100574.69;5079589;27;46349;-67
2022/05/24 09:27:49;;;;;;;;;4.25;2.50;;;;;19.66;48.22;100568.94;5078221;28;45853;-68
2022/05/24 09:30:25;;;;;;;;;3.25;1.50;;;;;19.72;48.40;100578.22;5079619;27;45332;-67
2022/05/24 09:32:51;;;;;;;;;5.00;2.00;;;;;19.77;49.12;100565.53;5079453;28;45589;-68
2022/05/24 09:35:21;;;;;;;;;3.00;1.75;;;;;19.91;46.44;100572.53;5077504;28;47104;-69
2022/05/24 09:38:04;;;;;;;;;3.00;2.00;;;;;19.96;47.86;100576.53;5079518;27;45292;-67
2022/05/24 09:40:42;;;;;;;;;3.75;1.00;;;;;20.00;44.66;100574.50;5094193;27;45382;-67
2022/05/24 09:43:26;;;;;;;;;4.00;2.00;;;;;19.97;47.34;100582.63;5078925;27;45854;-68
2022/05/24 09:45:56;;;;;;;;;1.00;1.00;;;;;20.01;47.42;100582.31;5079398;27;46184;-75
2022/05/24 09:48:26;;;;;;;;;2.00;1.00;;;;;20.11;46.36;100571.97;5079370;27;45574;-72
2022/05/24 09:50:53;;;;;;;;;0.75;0.75;;;;;20.03;46.51;100579.59;5079176;27;45393;-70
2022/05/24 09:53:22;;;;;;;;;3.50;1.50;;;;;19.93;47.58;100566.19;5079365;28;45370;-70
2022/05/24 09:55:55;;;;;;;;;2.50;1.25;;;;;19.95;45.09;100576.63;5079426;27;46654;-71
2022/05/24 09:58:25;;;;;;;;;2.25;1.25;;;;;19.74;45.08;100584.22;5077378;28;45247;-70
2022/05/24 10:00:56;;;;;;;;;1.00;1.00;;;;;19.51;44.87;100579.63;5081033;28;45283;-70
2022/05/24 10:03:25;;;;;;;;;3.00;1.50;;;;;19.32;46.49;100590.53;5082902;27;45475;-70
2022/05/24 10:06:29;;;;;;;;;2.00;0.25;;;;;19.14;44.96;100590.81;5082573;27;45635;-69
2022/05/24 10:09:29;;;;;;;;;1.00;1.00;;;;;19.06;46.87;100595.75;5080647;27;45291;-71
2022/05/24 10:12:17;;;;;;;;;2.00;1.00;;;;;19.08;46.48;100595.66;5082028;27;45295;-69
2022/05/24 10:15:15;;;;;;;;;4.00;2.50;;;;;19.07;46.82;100586.91;5070784;28;45397;-68
2022/05/24 10:17:50;;;;;;;;;3.25;2.75;;;;;19.11;47.38;100591.00;5081726;28;45668;-68
2022/05/24 10:20:40;;;;;;;;;3.75;3.00;;;;;19.19;46.51;100597.56;5081924;27;45438;-69
2022/05/24 10:23:29;;;;;;;;;1.00;1.00;;;;;19.35;47.55;100598.25;5081962;27;45337;-70
2022/05/24 10:26:00;;;;;;;;;3.50;1.00;;;;;19.43;46.11;100596.81;5072282;28;46081;-74
2022/05/24 10:28:47;;;;;;;;;3.00;1.00;;;;;19.21;45.91;100593.88;5077310;28;46295;-74
2022/05/24 10:31:26;;;;;;;;;2.00;1.00;;;;;19.02;46.41;100596.03;5082274;28;45257;-64
2022/05/24 10:39:43;;;;;;;;;2.75;1.75;;;;;19.15;47.43;100597.75;5081757;28;45597;-63
2022/05/24 10:42:20;;;;;;;;;2.00;1.25;;;;;19.32;46.71;100598.44;5081823;27;45336;-63
2022/05/24 10:44:53;;;;;;;;;1.00;1.00;;;;;19.31;44.26;100592.34;5081550;28;45344;-62
2022/05/24 10:47:58;;;;;;;;;1.50;0.50;;;;;19.22;44.72;100597.34;5081041;28;45254;-64
2022/05/24 10:50:46;;;;;;;;;0.50;0.50;;;;;19.12;44.52;100605.03;5080017;27;46356;-65
2022/05/24 10:53:30;;;;;;;;;5.50;3.00;;;;;19.26;45.85;100609.41;5081117;28;45503;-64
2022/05/24 10:56:13;;;;;;;;;1.75;1.00;;;;;19.57;44.90;100605.59;5081355;27;45452;-68
2022/05/24 10:58:41;;;;;;;;;2.25;2.25;;;;;19.77;43.43;100605.09;5070939;28;45400;-67
2022/05/24 11:01:33;;;;;;;;;2.75;2.00;;;;;19.82;43.70;100608.25;5077104;28;47111;-69
2022/05/24 11:04:08;;;;;;;;;3.50;1.50;;;;;19.80;43.77;100604.03;5079797;28;45429;-67
2022/05/24 11:06:40;;;;;;;;;1.00;1.00;;;;;19.82;44.76;100610.91;5081165;28;45366;-67
2022/05/24 11:09:18;;;;;;;;;1.50;1.00;;;;;19.89;43.61;100612.19;5080391;28;45600;-66
2022/05/24 11:12:26;;;;;;;;;5.25;2.00;;;;;20.02;44.37;100612.16;5081004;27;46156;-65
2022/05/24 11:15:01;;;;;;;;;2.50;1.25;;;;;20.11;43.68;100611.56;5078176;28;45688;-65
2022/05/24 11:17:26;;;;;;;;;1.00;0.50;;;;;20.29;43.32;100615.56;5081471;27;45452;-67
2022/05/24 11:19:59;;;;;;;;;1.25;1.25;;;;;20.54;43.77;100600.66;5081181;27;45179;-63
2022/05/24 11:22:36;;;;;;;;;1.25;0.75;;;;;20.68;42.19;100613.72;5078407;28;45556;-64
2022/05/24 11:25:06;;;;;;;;;1.75;0.75;;;;;20.78;43.30;100596.25;5080285;28;45490;-64
2022/05/24 11:27:36;;;;;;;;;2.00;0.50;;;;;20.94;41.60;100607.41;5070738;27;45894;-64
2022/05/24 11:30:29;;;;;;;;;0.50;0.50;;;;;21.02;42.87;100606.81;5058707;28;45382;-64
2022/05/24 11:33:06;;;;;;;;;2.00;1.00;;;;;21.12;41.94;100610.50;5060545;28;45481;-65
2022/05/24 11:35:38;;;;;;;;;0.25;0.25;;;;;21.12;41.64;100604.38;5057910;28;45478;-64
2022/05/24 11:38:10;;;;;;;;;1.00;1.00;;;;;21.11;41.69;100605.31;5060190;28;45367;-64
2022/05/24 11:40:56;;;;;;;;;2.50;1.50;;;;;21.07;41.67;100603.88;5060895;28;45452;-64
2022/05/24 11:43:38;;;;;;;;;1.00;1.00;;;;;21.17;41.00;100604.88;5060269;28;45528;-64
2022/05/24 11:46:37;;;;;;;;;0.00;0.00;;;;;21.13;38.09;100612.19;5060953;28;45550;-64
2022/05/24 11:49:27;;;;;;;;;1.00;1.00;;;;;20.98;37.42;100609.81;5061041;28;45616;-65
2022/05/24 11:51:54;;;;;;;;;1.75;1.00;;;;;20.99;39.66;100603.56;5059974;28;45279;-64
2022/05/24 11:54:21;;;;;;;;;3.75;0.75;;;;;21.03;39.70;100605.06;5060912;28;45283;-65
2022/05/24 11:56:54;;;;;;;;;0.50;0.50;;;;;21.14;39.31;100610.38;5060693;28;45564;-64
2022/05/24 11:59:43;;;;;;;;;0.75;0.00;;;;;21.45;38.69;100615.13;5061224;28;45220;-65
2022/05/24 12:02:20;;;;;;;;;0.50;0.00;;;;;21.64;38.35;100616.38;5060601;28;45431;-64
2022/05/24 12:08:02;;;;;;;;;3.00;1.00;;;;;21.93;38.98;100612.34;5060727;28;45666;-65
2022/05/24 12:10:41;;;;;;;;;4.00;2.00;;;;;22.01;38.62;100609.94;5061243;28;45304;-65
2022/05/24 12:13:29;;;;;;;;;0.00;0.00;;;;;21.90;38.25;100607.31;5061005;28;45376;-64